Murphy, ID (83650)

8:23 AM MDT en Octubre 30, 2014 (GMT -0600)
RAWS IDARNG1_RG2 ID US | Change Station
CLOSE
Current Station
Estación meteorológica personal
Location: Boise, ID
Altura: 3304 ft
Estaciones meteorológicas cercanas

Alt 3304 ft 43.27 °N, 116.15 °W | Updated 58 minutes ago

Despejado
Despejado
42 ° F
Sensación térmica 35 ° F
N
13
Viento Variable Viento desde ESE
Gusts 17.0 mph

Hoy
Alta -- | Baja -- ° F
--% Posibilidad de precipitaciones
Ayer
Alta -- | Baja -- ° F
Precip. -- pul
8:18 AM 6:40 PM
Creciente, 44% visible
Presión 30.15 pul
Visibilidad 2.5 Millas
Nubes Despejado
Vientos helados 35 ° F
Punto de rocío 37 ° F
Humedad 81%
Precipitaciones 0.00 pul
Espesor de la nieve No disponible.
UV 0 de una escala de 12
Polen 3.60 de una escala de 12
Calidad del aire No disponible.
Flu Activity No disponible.
METAR KMAN 301415Z AUTO 13005KT 2 1/2SM CLR 05/05 A3015 RMK AO1

More Conditions Fewer Conditions

Presión 30.15 pul
Visibilidad 2.5 Millas
Nubes Despejado
Vientos helados 35 ° F
Punto de rocío 37 ° F
Humedad 81%
Precipitaciones 0.00 pul
Espesor de la nieve No disponible.
UV 0 de una escala de 12
Polen 3.60 de una escala de 12
Calidad del aire No disponible.
Flu Activity No disponible.
METAR KMAN 301415Z AUTO 13005KT 2 1/2SM CLR 05/05 A3015 RMK AO1

More Conditions Fewer Conditions

10-Day Weather Forecast

Almanac

Astronomía

Oct. 30, 2014 Salida Puesta
Hora real
Crepúsculo civil
Crepúsculo náutico
Crepúsculo astronómico
Luna
Horas de luz
Horas de luz
Tomorrow will be .
, % of the Moon is Illuminated

Extremos de hoy

Máximos del estado Bajos del estado

Community

WunderPhotos

Upload Photos

1,766,371 ¡fotos cargadas!

WunderBlogs® & News

Nearby

Calidad del aire

  Calidad del aire Índice AQ Contaminante
Not available.

Grosos de nieve

Estación Profundido Altura

Actividad de terremotos

Ciudad Distance Mag. Tiempo y dato
Magnitud mínima muestra es 2,5.

Temperaturas de aguas costeras

Lugar Temperatura

Estaciones meteorológicas cercanas